createdAt,value
2017-11-09T00:00:01.877Z,120.60
2017-11-09T00:03:03.306Z,132.97
2017-11-09T00:06:11.348Z,119.47
2017-11-09T00:09:12.712Z,115.67
2017-11-09T00:12:14.109Z,136.50
2017-11-09T00:15:15.554Z,128.63
2017-11-09T00:18:17.748Z,126.37
2017-11-09T00:21:19.093Z,121.20
2017-11-09T00:24:21.248Z,120.13
2017-11-09T00:27:29.704Z,117.20
2017-11-09T00:30:31.081Z,123.50
2017-11-09T00:33:32.438Z,118.00
2017-11-09T00:36:33.846Z,130.63
2017-11-09T00:39:35.984Z,123.73
2017-11-09T00:42:38.127Z,133.57
2017-11-09T00:45:39.568Z,117.33
2017-11-09T00:48:40.897Z,133.83
2017-11-09T00:51:42.269Z,117.10
2017-11-09T00:54:43.599Z,123.43
2017-11-09T00:57:44.944Z,122.90
2017-11-09T01:00:46.315Z,130.30
2017-11-09T01:03:47.723Z,120.43
2017-11-09T01:06:49.087Z,117.27
2017-11-09T01:09:50.554Z,124.10
2017-11-09T01:12:51.943Z,127.97
2017-11-09T01:15:53.320Z,118.43
2017-11-09T01:18:55.434Z,116.60
2017-11-09T01:21:56.770Z,109.67
2017-11-09T01:24:58.162Z,125.37
2017-11-09T01:27:59.483Z,124.30
2017-11-09T01:31:01.018Z,107.10
2017-11-09T01:34:02.440Z,124.57
2017-11-09T01:37:04.539Z,126.10
2017-11-09T01:40:05.958Z,123.87
2017-11-09T01:43:08.118Z,114.43
2017-11-09T01:46:09.510Z,133.63
2017-11-09T01:49:10.870Z,120.43
2017-11-09T01:52:12.227Z,133.77
2017-11-09T01:55:13.609Z,126.30
2017-11-09T01:58:14.955Z,129.77
2017-11-09T02:01:16.427Z,129.97
2017-11-09T02:04:17.877Z,121.13
2017-11-09T02:07:19.362Z,127.83
2017-11-09T02:10:20.754Z,125.70
2017-11-09T02:13:22.155Z,130.80
2017-11-09T02:16:24.319Z,132.67
2017-11-09T02:19:26.500Z,137.80
2017-11-09T02:22:27.926Z,129.30
2017-11-09T02:25:29.386Z,125.90
2017-11-09T02:28:31.494Z,133.90
2017-11-09T02:31:32.952Z,126.77
2017-11-09T02:34:34.424Z,143.93
2017-11-09T02:37:35.812Z,130.50
2017-11-09T02:40:38.043Z,141.13
2017-11-09T02:43:39.611Z,133.80
2017-11-09T02:46:41.059Z,136.67
2017-11-09T02:49:42.517Z,126.33
2017-11-09T02:52:43.969Z,135.97
2017-11-09T02:55:45.421Z,132.17
2017-11-09T02:58:46.860Z,127.03
2017-11-09T03:01:49.009Z,140.43
2017-11-09T03:04:50.408Z,127.33
2017-11-09T03:07:51.826Z,131.53
2017-11-09T03:10:53.209Z,143.37
2017-11-09T03:13:54.572Z,128.33
2017-11-09T03:16:56.673Z,141.53
2017-11-09T03:19:58.088Z,130.53
2017-11-09T03:23:00.232Z,130.90
2017-11-09T03:26:01.590Z,143.53
2017-11-09T03:29:02.996Z,129.07
2017-11-09T03:32:04.356Z,148.63
2017-11-09T03:35:05.785Z,132.00
2017-11-09T03:38:07.133Z,150.27
2017-11-09T03:41:08.507Z,147.77
2017-11-09T03:44:09.964Z,146.20
2017-11-09T03:47:11.403Z,143.93
2017-11-09T03:50:12.828Z,136.33
2017-11-09T03:53:14.926Z,147.07
2017-11-09T03:56:16.273Z,130.73
2017-11-09T03:59:17.663Z,147.40
2017-11-09T04:02:19.012Z,156.90
2017-11-09T04:05:20.403Z,134.60
2017-11-09T04:08:22.615Z,129.87
2017-11-09T04:11:23.969Z,130.00
2017-11-09T04:14:25.379Z,134.57
2017-11-09T04:17:27.510Z,146.57
2017-11-09T04:20:28.931Z,129.10
2017-11-09T04:23:30.302Z,129.20
2017-11-09T04:26:31.668Z,121.77
2017-11-09T04:29:33.187Z,143.10
2017-11-09T04:32:34.534Z,128.43
2017-11-09T04:35:35.898Z,137.50
2017-11-09T04:38:37.300Z,145.03
2017-11-09T04:41:39.438Z,124.47
2017-11-09T04:44:40.937Z,121.30
2017-11-09T04:47:42.298Z,151.40
2017-11-09T04:50:43.641Z,144.23
2017-11-09T04:53:45.032Z,140.47
2017-11-09T04:56:46.346Z,148.13
2017-11-09T04:59:47.750Z,138.40
2017-11-09T05:02:49.321Z,144.20
2017-11-09T05:05:50.738Z,128.63
2017-11-09T05:08:52.077Z,141.70
2017-11-09T05:11:53.466Z,137.53
2017-11-09T05:14:54.800Z,136.90
2017-11-09T05:17:56.135Z,133.63
2017-11-09T05:20:57.587Z,127.70
2017-11-09T05:23:58.939Z,131.30
2017-11-09T05:27:00.329Z,128.87
2017-11-09T05:30:02.536Z,118.00
2017-11-09T05:33:03.868Z,118.87
2017-11-09T05:36:05.249Z,140.43
2017-11-09T05:39:06.589Z,135.63
2017-11-09T05:42:07.960Z,131.07
2017-11-09T05:45:09.361Z,131.00
2017-11-09T05:48:11.423Z,135.57
2017-11-09T05:51:13.570Z,129.10
2017-11-09T05:54:15.009Z,129.70
2017-11-09T05:57:16.435Z,124.87
2017-11-09T06:00:17.846Z,128.53
2017-11-09T06:03:20.016Z,127.07
2017-11-09T06:06:22.159Z,130.90
2017-11-09T06:09:23.645Z,125.10
2017-11-09T06:12:25.056Z,137.63
2017-11-09T06:15:26.457Z,124.87
2017-11-09T06:18:27.834Z,117.10
2017-11-09T06:21:29.213Z,131.73
2017-11-09T06:24:30.652Z,121.33
2017-11-09T06:27:32.035Z,116.63
2017-11-09T06:30:33.440Z,130.30
2017-11-09T06:33:34.946Z,124.33
2017-11-09T06:36:37.081Z,133.47
2017-11-09T06:39:38.511Z,140.53
2017-11-09T06:42:39.841Z,122.63
2017-11-09T06:45:41.291Z,130.50
2017-11-09T06:48:42.697Z,118.40
2017-11-09T06:51:44.087Z,120.03
2017-11-09T06:54:46.191Z,117.03
2017-11-09T06:57:47.562Z,117.90
2017-11-09T07:00:48.956Z,119.67
2017-11-09T07:03:51.075Z,122.10
2017-11-09T07:06:52.519Z,112.73
2017-11-09T07:09:53.984Z,119.43
2017-11-09T07:12:55.366Z,107.53
2017-11-09T07:15:56.782Z,119.37
2017-11-09T07:18:58.091Z,121.37
2017-11-09T07:21:59.444Z,115.90
2017-11-09T07:25:00.815Z,110.77
2017-11-09T07:28:02.125Z,115.00
2017-11-09T07:31:04.228Z,128.90
2017-11-09T07:34:05.606Z,124.23
2017-11-09T07:37:06.979Z,111.93
2017-11-09T07:40:08.353Z,140.37
2017-11-09T07:43:09.701Z,115.70
2017-11-09T07:46:11.788Z,127.30
2017-11-09T07:49:13.132Z,121.00
2017-11-09T07:52:14.477Z,130.97
2017-11-09T07:55:15.788Z,121.03
2017-11-09T07:58:17.149Z,118.13
2017-11-09T08:01:19.214Z,123.80
2017-11-09T08:04:20.523Z,114.70
2017-11-09T08:07:22.015Z,112.33
2017-11-09T08:10:23.337Z,110.17
2017-11-09T08:13:25.441Z,122.20
2017-11-09T08:16:27.485Z,139.60
2017-11-09T08:19:28.929Z,122.70
2017-11-09T08:22:30.205Z,123.50
2017-11-09T08:25:36.087Z,156.23
2017-11-09T08:28:40.221Z,124.93
2017-11-09T08:31:47.551Z,116.67
2017-11-09T08:34:51.158Z,125.97
2017-11-09T08:37:52.470Z,116.57
2017-11-09T08:40:53.858Z,116.30
2017-11-09T08:43:55.329Z,128.57
2017-11-09T08:46:56.881Z,117.43
2017-11-09T08:49:58.196Z,119.87
2017-11-09T08:52:59.511Z,130.30
2017-11-09T08:56:00.853Z,120.23
2017-11-09T08:59:02.187Z,120.10
2017-11-09T09:02:03.544Z,117.73
2017-11-09T09:05:05.624Z,108.40
2017-11-09T09:08:06.959Z,121.57
2017-11-09T09:11:09.034Z,114.47
2017-11-09T09:14:10.384Z,123.30
2017-11-09T09:17:12.427Z,112.17
2017-11-09T09:20:13.802Z,116.10
2017-11-09T09:23:15.269Z,92.83
2017-11-09T09:26:19.579Z,86.90
2017-11-09T09:29:21.820Z,94.23
2017-11-09T09:32:25.478Z,89.17
2017-11-09T09:35:35.664Z,85.77
2017-11-09T09:38:41.805Z,89.97
2017-11-09T09:41:43.976Z,95.50
2017-11-09T09:44:45.421Z,87.90
2017-11-09T09:47:46.754Z,86.50
2017-11-09T09:50:48.140Z,78.23
2017-11-09T09:53:49.477Z,83.10
2017-11-09T09:56:50.909Z,84.50
2017-11-09T09:59:52.331Z,85.60
2017-11-09T10:02:54.470Z,77.80
2017-11-09T10:05:55.840Z,97.83
2017-11-09T10:08:57.193Z,104.80
2017-11-09T10:11:58.548Z,98.77
2017-11-09T10:15:00.676Z,105.87
2017-11-09T10:18:01.979Z,113.20
2017-11-09T10:21:04.059Z,96.00
2017-11-09T10:24:05.405Z,95.47
2017-11-09T10:27:07.477Z,97.83
2017-11-09T10:30:08.842Z,105.10
2017-11-09T10:33:10.171Z,100.20
2017-11-09T10:36:13.872Z,111.57
2017-11-09T10:39:15.751Z,109.87
2017-11-09T10:42:17.160Z,103.90
2017-11-09T10:45:18.564Z,103.10
2017-11-09T10:48:19.878Z,101.23
2017-11-09T10:51:21.981Z,112.40
2017-11-09T10:54:23.327Z,100.30
2017-11-09T10:57:24.684Z,111.93
2017-11-09T11:00:32.156Z,98.17
2017-11-09T11:03:33.509Z,98.20
2017-11-09T11:06:35.602Z,112.90
2017-11-09T11:09:36.959Z,93.57
2017-11-09T11:12:38.274Z,88.27
2017-11-09T11:15:40.378Z,69.93
2017-11-09T11:18:42.242Z,70.93
2017-11-09T11:21:43.583Z,80.80
2017-11-09T11:24:44.900Z,71.97
2017-11-09T11:27:46.948Z,81.93
2017-11-09T11:30:48.282Z,77.73
2017-11-09T11:33:49.631Z,72.90
2017-11-09T11:36:50.990Z,60.17
2017-11-09T11:39:52.354Z,68.17
2017-11-09T11:42:53.790Z,76.77
2017-11-09T11:45:55.107Z,69.13
2017-11-09T11:48:56.487Z,67.20
2017-11-09T11:51:57.796Z,67.70
2017-11-09T11:54:59.100Z,70.87
2017-11-09T11:58:00.494Z,75.63
2017-11-09T12:01:01.837Z,77.87
2017-11-09T12:04:03.151Z,85.17
2017-11-09T12:10:14.716Z,78.03
2017-11-09T12:13:18.063Z,87.47
2017-11-09T12:16:20.107Z,69.97
2017-11-09T12:19:21.436Z,73.67
2017-11-09T12:22:22.826Z,81.87
2017-11-09T12:25:24.890Z,81.47
2017-11-09T12:28:26.361Z,74.83
2017-11-09T12:31:28.374Z,70.50
2017-11-09T12:34:29.737Z,75.33
2017-11-09T12:37:31.029Z,69.83
2017-11-09T12:40:33.146Z,74.43
2017-11-09T12:43:34.477Z,78.77
2017-11-09T12:46:35.827Z,69.47
2017-11-09T12:49:37.256Z,71.67
2017-11-09T12:52:38.665Z,69.23
2017-11-09T12:55:40.048Z,76.50
2017-11-09T12:58:42.140Z,76.57
2017-11-09T13:01:43.461Z,74.50
2017-11-09T13:04:45.559Z,85.00
2017-11-09T13:07:46.887Z,85.67
2017-11-09T13:10:48.268Z,82.53
2017-11-09T13:13:49.628Z,81.50
2017-11-09T13:16:51.097Z,71.83
2017-11-09T13:19:52.548Z,86.57
2017-11-09T13:22:53.937Z,77.37
2017-11-09T13:25:55.309Z,84.73
2017-11-09T13:28:56.600Z,82.43
2017-11-09T13:31:57.937Z,89.37
2017-11-09T13:34:59.231Z,88.80
2017-11-09T13:38:01.316Z,81.17
2017-11-09T13:41:02.649Z,79.93
2017-11-09T13:44:04.736Z,84.70
2017-11-09T13:47:06.071Z,90.90
2017-11-09T13:50:08.156Z,74.47
2017-11-09T13:53:09.487Z,87.00
2017-11-09T13:56:11.549Z,74.60
2017-11-09T13:59:13.618Z,98.07
2017-11-09T14:02:15.652Z,89.67
2017-11-09T14:05:17.012Z,91.87
2017-11-09T14:08:18.322Z,90.63
2017-11-09T14:11:19.698Z,68.30
2017-11-09T14:14:21.028Z,76.33
2017-11-09T14:17:22.402Z,79.93
2017-11-09T14:20:23.819Z,82.23
2017-11-09T14:23:25.184Z,81.20
2017-11-09T14:26:26.619Z,72.77
2017-11-09T14:29:27.980Z,74.13
2017-11-09T14:32:29.376Z,75.83
2017-11-09T14:35:30.741Z,75.17
2017-11-09T14:38:35.787Z,80.57
2017-11-09T14:41:37.128Z,76.67
2017-11-09T14:44:39.257Z,75.47
2017-11-09T14:47:40.643Z,70.27
2017-11-09T14:50:42.799Z,75.60
2017-11-09T14:53:44.131Z,86.03
2017-11-09T14:56:45.524Z,74.53
2017-11-09T14:59:46.860Z,77.07
2017-11-09T15:02:49.003Z,71.17
2017-11-09T15:05:50.426Z,69.17
2017-11-09T15:08:51.792Z,64.97
2017-11-09T15:11:53.218Z,79.97
2017-11-09T15:14:54.597Z,75.73
2017-11-09T15:17:55.982Z,83.17
2017-11-09T15:20:58.115Z,65.10
2017-11-09T15:23:59.469Z,80.77
2017-11-09T15:27:01.577Z,76.40
2017-11-09T15:30:03.710Z,69.27
2017-11-09T15:33:05.939Z,71.17
2017-11-09T15:36:09.190Z,75.60
2017-11-09T15:39:10.657Z,67.70
2017-11-09T15:42:12.030Z,74.20
2017-11-09T15:45:13.513Z,70.00
2017-11-09T15:48:14.926Z,72.93
2017-11-09T15:51:16.596Z,71.43
2017-11-09T15:54:18.551Z,70.90
2017-11-09T15:57:21.035Z,77.70
2017-11-09T16:00:22.644Z,71.47
2017-11-09T16:03:23.943Z,75.93
2017-11-09T16:06:25.455Z,69.63
2017-11-09T16:09:27.678Z,83.73
2017-11-09T16:12:29.608Z,78.00
2017-11-09T16:15:31.392Z,88.33
2017-11-09T16:18:37.528Z,68.13
2017-11-09T16:21:39.540Z,89.20
2017-11-09T16:24:40.896Z,63.60
2017-11-09T16:27:44.572Z,73.90
2017-11-09T16:30:46.612Z,73.77
2017-11-09T16:33:48.074Z,77.93
2017-11-09T16:36:50.153Z,76.63
2017-11-09T16:39:51.622Z,72.77
2017-11-09T16:42:53.926Z,66.43
2017-11-09T16:45:55.360Z,91.17
2017-11-09T16:48:56.854Z,99.00
2017-11-09T16:51:59.497Z,87.67
2017-11-09T16:55:00.886Z,75.30
2017-11-09T16:58:02.217Z,79.63
2017-11-09T17:01:03.874Z,94.37
2017-11-09T17:04:05.349Z,82.50
2017-11-09T17:07:06.667Z,86.73
2017-11-09T17:10:08.941Z,83.83
2017-11-09T17:13:10.419Z,102.50
2017-11-09T17:16:11.705Z,94.17
2017-11-09T17:19:13.825Z,99.60
2017-11-09T17:22:16.472Z,85.47
2017-11-09T17:25:18.112Z,89.17
2017-11-09T17:28:21.152Z,89.57
2017-11-09T17:31:23.168Z,83.53
2017-11-09T17:34:27.886Z,91.50
2017-11-09T17:37:29.316Z,83.93
2017-11-09T17:40:32.083Z,76.00
2017-11-09T17:43:34.200Z,90.00
2017-11-09T17:46:35.590Z,83.77
2017-11-09T17:49:37.816Z,80.77
2017-11-09T17:52:40.425Z,75.83
2017-11-09T17:55:42.905Z,81.03
2017-11-09T17:58:44.410Z,76.60
2017-11-09T18:01:48.303Z,78.37
2017-11-09T18:04:49.689Z,80.37
2017-11-09T18:07:51.915Z,85.07
2017-11-09T18:10:54.121Z,76.60
2017-11-09T18:13:56.340Z,72.50
2017-11-09T18:16:59.391Z,80.40
2017-11-09T18:20:01.584Z,92.97
2017-11-09T18:23:03.110Z,72.97
2017-11-09T18:26:05.318Z,73.77
2017-11-09T18:29:06.751Z,70.13
2017-11-09T18:32:08.362Z,73.50
2017-11-09T18:35:09.872Z,76.00
2017-11-09T18:38:11.300Z,73.90
2017-11-09T18:41:12.717Z,66.27
2017-11-09T18:44:14.168Z,69.50
2017-11-09T18:47:15.659Z,68.70
2017-11-09T18:50:17.369Z,74.67
2017-11-09T18:53:19.036Z,77.93
2017-11-09T18:59:31.697Z,74.30
2017-11-09T19:02:33.808Z,77.83
2017-11-09T19:05:35.299Z,68.93
2017-11-09T19:08:37.130Z,71.83
2017-11-09T19:11:38.668Z,68.63
2017-11-09T19:14:40.178Z,76.27
2017-11-09T19:17:42.397Z,77.17
2017-11-09T19:20:44.065Z,77.97
2017-11-09T19:23:45.533Z,76.83
2017-11-09T19:26:46.962Z,66.33
2017-11-09T19:29:48.412Z,67.10
2017-11-09T19:32:49.864Z,65.67
2017-11-09T19:35:51.302Z,78.80
2017-11-09T19:38:53.720Z,78.13
2017-11-09T19:41:55.783Z,70.20
2017-11-09T19:44:57.504Z,58.87
2017-11-09T19:47:59.444Z,80.63
2017-11-09T19:51:02.643Z,78.20
2017-11-09T19:54:05.120Z,61.60
2017-11-09T19:57:07.189Z,71.90
2017-11-09T20:00:09.350Z,79.43
2017-11-09T20:03:12.464Z,62.27
2017-11-09T20:06:14.608Z,76.67
2017-11-09T20:09:16.548Z,87.77
2017-11-09T20:12:20.176Z,71.83
2017-11-09T20:15:22.716Z,79.97
2017-11-09T20:18:34.017Z,83.83
2017-11-09T20:21:36.464Z,71.23
2017-11-09T20:24:38.012Z,76.97
2017-11-09T20:27:39.651Z,78.63
2017-11-09T20:30:41.599Z,74.07
2017-11-09T20:33:44.099Z,69.07
2017-11-09T20:36:45.585Z,62.77
2017-11-09T20:39:51.546Z,75.67
2017-11-09T20:42:56.139Z,73.97
2017-11-09T20:45:58.721Z,78.17
2017-11-09T20:49:00.145Z,66.73
2017-11-09T20:52:03.658Z,78.27
2017-11-09T20:55:05.521Z,72.80
2017-11-09T20:58:07.514Z,91.27
2017-11-09T21:01:09.551Z,73.33
2017-11-09T21:04:11.366Z,68.93
2017-11-09T21:07:12.981Z,66.13
2017-11-09T21:10:15.014Z,65.87
2017-11-09T21:13:16.527Z,68.93
2017-11-09T21:16:20.930Z,58.00
2017-11-09T21:19:22.441Z,56.33
2017-11-09T21:22:24.650Z,75.93
2017-11-09T21:25:26.263Z,59.73
2017-11-09T21:28:28.137Z,68.33
2017-11-09T21:31:30.036Z,58.53
2017-11-09T21:34:31.491Z,57.90
2017-11-09T21:37:34.109Z,66.20
2017-11-09T21:40:36.257Z,53.50
2017-11-09T21:43:37.748Z,54.90
2017-11-09T21:46:40.203Z,43.97
2017-11-09T21:49:43.180Z,46.93
2017-11-09T21:52:44.681Z,45.80
2017-11-09T21:55:46.921Z,50.07
2017-11-09T21:58:48.445Z,45.40
2017-11-09T22:01:49.931Z,48.07
2017-11-09T22:04:51.434Z,45.90
2017-11-09T22:07:53.090Z,53.30
2017-11-09T22:10:54.583Z,46.67
2017-11-09T22:13:56.145Z,50.33
2017-11-09T22:16:57.733Z,46.90
2017-11-09T22:19:59.917Z,50.17
2017-11-09T22:23:01.333Z,50.00
2017-11-09T22:26:02.906Z,46.97
2017-11-09T22:29:05.579Z,40.63
2017-11-09T22:32:07.094Z,44.17
2017-11-09T22:35:08.798Z,46.97
2017-11-09T22:38:11.008Z,45.63
2017-11-09T22:41:13.350Z,35.80
2017-11-09T22:44:15.730Z,42.83
2017-11-09T22:47:18.141Z,54.57
2017-11-09T22:50:20.551Z,40.53
2017-11-09T22:53:23.217Z,31.37
2017-11-09T22:56:25.485Z,37.50
2017-11-09T22:59:27.805Z,35.60
2017-11-09T23:02:30.485Z,34.63
2017-11-09T23:05:34.355Z,35.47
2017-11-09T23:08:37.787Z,28.97
2017-11-09T23:11:40.128Z,39.20
2017-11-09T23:14:42.184Z,33.37
2017-11-09T23:17:44.269Z,37.07
2017-11-09T23:20:47.305Z,36.10
2017-11-09T23:23:49.475Z,45.90
2017-11-09T23:26:51.705Z,35.00
2017-11-09T23:29:54.817Z,34.03
2017-11-09T23:32:56.708Z,33.70
2017-11-09T23:35:59.001Z,29.67
2017-11-09T23:39:01.169Z,38.37
2017-11-09T23:42:06.791Z,29.93
2017-11-09T23:45:12.927Z,32.03
2017-11-09T23:48:18.127Z,31.07
2017-11-09T23:51:20.408Z,35.10
2017-11-09T23:54:22.570Z,22.17
2017-11-09T23:57:27.297Z,30.97
